createdAt,value
2023-03-23T15:58:47.720Z,7.97
2023-03-23T16:01:20.022Z,8.25
2023-03-23T16:03:57.502Z,8.82
2023-03-23T16:06:28.492Z,11.57
2023-03-23T16:08:56.946Z,11.65
2023-03-23T16:11:31.585Z,17.70
2023-03-23T16:14:00.156Z,14.07
2023-03-23T16:16:53.266Z,15.68
2023-03-23T16:19:24.762Z,40.80
2023-03-23T16:21:53.001Z,18.48
2023-03-23T16:24:21.015Z,15.25
2023-03-23T16:26:49.333Z,17.17
2023-03-23T16:29:29.144Z,19.00
2023-03-23T16:32:06.964Z,28.60
2023-03-23T16:34:36.013Z,18.13
2023-03-23T16:37:07.650Z,22.17
2023-03-23T16:39:35.447Z,20.05
2023-03-23T16:42:04.190Z,28.38
2023-03-23T16:44:32.122Z,27.10
2023-03-23T16:47:00.231Z,24.42
2023-03-23T16:49:28.242Z,22.73
2023-03-23T16:51:56.675Z,28.23
2023-03-23T16:54:24.677Z,33.90
2023-03-23T16:56:53.068Z,47.90
2023-03-23T16:59:20.992Z,35.78
2023-03-23T17:01:49.205Z,34.85
2023-03-23T17:04:17.110Z,25.80
2023-03-23T17:06:46.434Z,19.05
2023-03-23T17:09:14.297Z,11.93
2023-03-23T17:11:42.436Z,24.00
2023-03-23T17:14:10.440Z,19.15
2023-03-23T17:16:39.170Z,25.77
2023-03-23T17:19:07.635Z,20.55
2023-03-23T17:22:08.494Z,12.67
2023-03-23T17:24:37.442Z,15.18
2023-03-23T17:27:05.906Z,17.95
2023-03-23T17:29:34.396Z,17.20
2023-03-23T17:32:02.629Z,15.23
2023-03-23T17:34:35.402Z,17.10
2023-03-23T17:37:07.649Z,27.30
2023-03-23T17:39:43.217Z,21.15
2023-03-23T17:42:12.407Z,13.18
2023-03-23T17:44:40.620Z,17.73
2023-03-23T17:47:09.170Z,16.40
2023-03-23T17:49:37.303Z,16.95
2023-03-23T17:52:07.019Z,20.65
2023-03-23T17:54:38.966Z,81.82
2023-03-23T17:57:09.933Z,45.22
2023-03-23T17:59:38.140Z,42.90
2023-03-23T18:02:31.491Z,32.03
2023-03-23T18:05:02.778Z,30.67
2023-03-23T18:07:57.510Z,52.95
2023-03-23T18:10:25.616Z,72.68
2023-03-23T18:12:53.825Z,53.57
2023-03-23T18:15:22.003Z,25.08
2023-03-23T18:18:26.709Z,19.90
2023-03-23T18:21:03.661Z,14.32
2023-03-23T18:23:39.098Z,16.60
2023-03-23T18:26:14.402Z,15.13
2023-03-23T18:28:44.055Z,17.10
2023-03-23T18:31:14.992Z,55.40
2023-03-23T18:33:48.144Z,60.20
2023-03-23T18:36:18.997Z,30.83
2023-03-23T18:38:50.248Z,33.90
2023-03-23T18:41:19.377Z,41.55
2023-03-23T18:43:47.550Z,41.83
2023-03-23T18:46:16.095Z,29.55
2023-03-23T18:48:44.372Z,17.73
2023-03-23T18:51:12.670Z,16.00
2023-03-23T18:53:41.363Z,23.10
2023-03-23T18:56:16.689Z,29.70
2023-03-23T18:58:53.090Z,27.33
2023-03-23T19:02:09.123Z,23.13
2023-03-23T19:04:37.771Z,15.87
2023-03-23T19:07:06.265Z,18.13
2023-03-23T19:09:35.609Z,16.35
2023-03-23T19:12:03.832Z,17.10
2023-03-23T19:14:32.097Z,15.43
2023-03-23T19:17:00.119Z,16.03
2023-03-23T19:19:28.560Z,12.60
2023-03-23T19:21:56.320Z,14.05
2023-03-23T19:24:27.096Z,15.52
2023-03-23T19:26:55.126Z,21.40
2023-03-23T19:29:27.069Z,13.87
2023-03-23T19:31:57.054Z,34.05
2023-03-23T19:34:27.215Z,35.75
2023-03-23T19:37:04.174Z,27.35
2023-03-23T19:39:35.173Z,23.08
2023-03-23T19:42:04.418Z,23.90
2023-03-23T19:44:34.470Z,22.33
2023-03-23T19:47:03.004Z,29.48
2023-03-23T19:49:31.583Z,30.95
2023-03-23T19:52:09.117Z,31.95
2023-03-23T19:54:40.933Z,25.63
2023-03-23T19:57:10.870Z,24.92
2023-03-23T19:59:39.825Z,33.28
2023-03-23T20:02:08.605Z,18.98
2023-03-23T20:04:37.132Z,19.05
2023-03-23T20:07:07.795Z,16.73
2023-03-23T20:09:38.140Z,12.25
2023-03-23T20:12:06.911Z,12.05
2023-03-23T20:14:35.724Z,11.30
2023-03-23T20:17:05.672Z,14.07
2023-03-23T20:19:36.371Z,14.20
2023-03-23T20:22:05.146Z,15.52
2023-03-23T20:24:33.423Z,15.93
2023-03-23T20:27:03.211Z,16.08
2023-03-23T20:29:33.721Z,14.18
2023-03-23T20:32:01.946Z,13.30
2023-03-23T20:34:31.501Z,13.73
2023-03-23T20:37:02.266Z,9.57
2023-03-23T20:39:32.965Z,9.55
2023-03-23T20:42:03.496Z,9.82
2023-03-23T20:44:36.376Z,12.27
2023-03-23T20:47:04.841Z,11.93
2023-03-23T20:49:35.528Z,15.07
2023-03-23T20:52:05.361Z,10.63
2023-03-23T20:54:33.548Z,10.30
2023-03-23T20:57:02.311Z,11.20
2023-03-23T20:59:30.570Z,15.23
2023-03-23T21:01:58.959Z,10.65
2023-03-23T21:04:27.905Z,12.02
2023-03-23T21:06:56.772Z,12.18
2023-03-23T21:09:25.687Z,15.43
2023-03-23T21:11:53.649Z,11.07
2023-03-23T21:14:21.935Z,12.82
2023-03-23T21:16:50.964Z,13.00
2023-03-23T21:19:20.831Z,12.05
2023-03-23T21:21:55.522Z,19.33
2023-03-23T21:24:29.188Z,22.63
2023-03-23T21:27:01.718Z,11.10
2023-03-23T21:29:31.228Z,11.98
2023-03-23T21:34:31.304Z,16.07
2023-03-23T21:36:59.131Z,13.57
2023-03-23T21:39:28.476Z,14.43
2023-03-23T21:41:56.263Z,13.32
2023-03-23T21:44:24.271Z,9.77
2023-03-23T21:46:52.780Z,11.50
2023-03-23T21:49:21.157Z,10.38
2023-03-23T21:51:49.961Z,15.75
2023-03-23T21:54:18.305Z,19.90
2023-03-23T21:56:46.484Z,18.98
2023-03-23T21:59:15.029Z,18.17
2023-03-23T22:01:42.824Z,14.90
2023-03-23T22:04:11.658Z,12.63
2023-03-23T22:06:39.668Z,13.07
2023-03-23T22:09:07.920Z,14.52
2023-03-23T22:11:37.531Z,17.43
2023-03-23T22:14:07.059Z,18.90
2023-03-23T22:16:35.012Z,19.10
2023-03-23T22:19:04.013Z,16.30
2023-03-23T22:21:32.274Z,16.33
2023-03-23T22:24:01.670Z,13.97
2023-03-23T22:26:30.415Z,14.10
2023-03-23T22:29:00.142Z,13.35
2023-03-23T22:31:33.049Z,15.93
2023-03-23T22:34:02.261Z,17.13
2023-03-23T22:36:31.163Z,13.27
2023-03-23T22:39:01.036Z,15.95
2023-03-23T22:41:37.217Z,20.23
2023-03-23T22:44:09.175Z,15.20
2023-03-23T22:46:36.992Z,18.98
2023-03-23T22:49:05.233Z,15.60
2023-03-23T22:51:33.186Z,17.13
2023-03-23T22:54:01.359Z,17.27
2023-03-23T22:56:29.216Z,16.92
2023-03-23T22:59:00.541Z,16.85
2023-03-23T23:01:28.563Z,23.43
2023-03-23T23:03:56.871Z,25.52
2023-03-23T23:06:26.054Z,31.23
2023-03-23T23:08:54.163Z,25.98
2023-03-23T23:11:24.622Z,30.08
2023-03-23T23:13:53.565Z,25.20
2023-03-23T23:16:22.543Z,24.80
2023-03-23T23:18:51.136Z,17.75
2023-03-23T23:21:22.359Z,17.02
2023-03-23T23:23:52.034Z,17.88
2023-03-23T23:26:20.205Z,29.43
2023-03-23T23:28:49.262Z,26.27
2023-03-23T23:31:33.887Z,18.65
2023-03-23T23:34:03.792Z,16.02
2023-03-23T23:36:35.696Z,16.67
2023-03-23T23:39:07.694Z,16.70
2023-03-23T23:41:36.419Z,14.88
2023-03-23T23:44:05.906Z,17.52
2023-03-23T23:46:34.160Z,15.52
2023-03-23T23:49:02.414Z,15.65
2023-03-23T23:51:33.893Z,17.67
2023-03-23T23:54:02.173Z,14.50
2023-03-23T23:56:29.939Z,16.60
2023-03-23T23:59:30.328Z,15.95
